Norwegian Spirit — C6TQ6 — position and weather

sailwx.info

Track history (hours):
 
Tides and Currents Weather Stations Pressure Air Temp Water Temp Dewpoint Dewpoint Depression Visibility Wind Speed Wind Dir Waves Ship Positions

Norwegian Spirit

Operator: Norwegian Cruise Line

Last reported at 2017-Feb-24 07:33 UTC. Time now 2017-Feb-24 08:21 UTC.
Position N 37°10' W 000°56'.

Type: Passenger vessel. MMSI: 311746000.

Date/timePositionNaut miles runAvg speedWind from/ knotsBaromVisibWave heightAir tempDewpointWater temp
2017-Feb-24 07:33N 37°10' W 000°56'1918.8
2017-Feb-24 06:32N 37°22' W 000°37'2121.4
2017-Feb-24 05:33N 37°37' W 000°18'12821.3
2017-Feb-23 23:33N 39°29' E 001°01'2120.8
2017-Feb-23 22:33N 39°48' E 001°13'2121.1
2017-Feb-23 21:33N 40°06' E 001°25'2221.7
2017-Feb-23 20:33N 40°25' E 001°38'2121.4
2017-Feb-23 19:33N 40°44' E 001°52'2121.3
2017-Feb-23 18:34N 41°03' E 002°05'1817.1
2017-Feb-23 17:30N 41°21' E 002°10'1 1.4
2017-Feb-23 16:32N 41°22' E 002°11'0 0.0
2017-Feb-23 13:14N 41°22' E 002°11'0 0.0
2017-Feb-23 12:26N 41°22' E 002°11'0 0.0
2017-Feb-23 10:32N 41°22' E 002°11'0 0.0
2017-Feb-23 09:32N 41°22' E 002°11'0 0.0
2017-Feb-23 08:32N 41°22' E 002°11'0 0.0
2017-Feb-23 07:32N 41°22' E 002°11'0 0.0
2017-Feb-23 06:29N 41°22' E 002°11'0 0.0
2017-Feb-23 05:29N 41°22' E 002°11'0 0.0
2017-Feb-23 04:32N 41°22' E 002°11'0 0.1
2017-Feb-23 03:33N 41°22' E 002°11'9 9.0
2017-Feb-23 02:34N 41°13' E 002°11'1716.5
2017-Feb-23 01:33N 40°58' E 002°02'1717.1
2017-Feb-23 00:33N 40°42' E 001°52'1717.1
2017-Feb-22 23:33N 40°27' E 001°41'1717.2
2017-Feb-22 22:33N 40°12' E 001°31'1717.3
2017-Feb-22 21:33N 39°56' E 001°21'1817.9
2017-Feb-22 20:33N 39°41' E 001°10'1817.5
2017-Feb-22 19:30N 39°24' E 000°59'1818.8
2017-Feb-22 18:33N 39°08' E 000°49'2121.2
2017-Feb-22 17:32N 38°49' E 000°36'2020.3
2017-Feb-22 16:32N 38°32' E 000°23'44 3.9
2017-Feb-22 05:19N 38°06' W 000°22'1620.6
2017-Feb-22 04:33N 37°50' W 000°26'1919.2
2017-Feb-22 03:33N 37°32' W 000°33'1919.7
2017-Feb-22 02:33N 37°19' W 000°51'211 8.7
2017-Feb-21 02:16N 36°15' W 005°02'1116.1
2017-Feb-21 01:33N 36°06' W 005°10'1717.1
2017-Feb-21 00:33N 35°58' W 005°28'2018.8
2017-Feb-20 23:29N 35°55' W 005°53'  
2017-Feb-18 10:19N 28°28' W 016°14'0 0.0
2017-Feb-18 09:25N 28°28' W 016°14'0 0.0
2017-Feb-18 08:22N 28°28' W 016°14'0 0.3
2017-Feb-18 07:33N 28°29' W 016°14'7 5.8
2017-Feb-18 06:16N 28°26' W 016°07'6 7.8
2017-Feb-18 05:33N 28°25' W 016°00'8 7.5
2017-Feb-18 04:33N 28°29' W 015°54'7 7.4
2017-Feb-18 03:33N 28°35' W 015°48'8 7.5
2017-Feb-18 02:33N 28°40' W 015°42'7 7.4
2017-Feb-18 01:33N 28°44' W 015°35'7 6.8
2017-Feb-18 00:33N 28°44' W 015°27'7 7.4
2017-Feb-17 23:33N 28°42' W 015°19'8 7.5
2017-Feb-17 22:34N 28°34' W 015°19'7 7.4
2017-Feb-17 21:33N 28°27' W 015°18'7 7.4
2017-Feb-17 20:33N 28°19' W 015°18'7 7.0
2017-Feb-17 19:34N 28°12' W 015°18'6 6.5
2017-Feb-17 18:34N 28°07' W 015°23'3 2.4
2017-Feb-17 17:24N 28°08' W 015°25'0 0.0
2017-Feb-17 16:33N 28°08' W 015°25'0 0.0
2017-Feb-17 15:24N 28°08' W 015°25'0 0.0
2017-Feb-17 14:27N 28°08' W 015°25'0 0.0
2017-Feb-17 13:27N 28°08' W 015°25'0 0.0
2017-Feb-17 12:27N 28°08' W 015°25'0 0.0
2017-Feb-17 11:30N 28°08' W 015°25'0 0.0
2017-Feb-17 10:30N 28°08' W 015°25'0 0.0
2017-Feb-17 09:30N 28°08' W 015°25'0 0.0
2017-Feb-17 08:33N 28°08' W 015°25'0 0.4
2017-Feb-17 07:33N 28°08' W 015°25'7 7.1
2017-Feb-17 06:33N 28°06' W 015°18'1414.1
2017-Feb-17 05:33N 28°08' W 015°02'1413.9
2017-Feb-17 04:33N 28°20' W 014°54'1514.6
2017-Feb-17 03:33N 28°32' W 014°44'1514.8
2017-Feb-17 02:33N 28°43' W 014°33'1514.8
2017-Feb-17 01:33N 28°54' W 014°22'1515.0
2017-Feb-17 00:33N 29°06' W 014°11'1514.7
2017-Feb-16 23:33N 29°17' W 014°00'1514.8
2017-Feb-16 22:33N 29°28' W 013°49'1514.6
2017-Feb-16 21:33N 29°39' W 013°38'1514.8
2017-Feb-16 20:33N 29°49' W 013°25'1515.0
2017-Feb-16 19:33N 29°59' W 013°12'1515.0
2017-Feb-16 18:33N 30°09' W 012°59'1515.1
2017-Feb-16 17:33N 30°19' W 012°47'1515.1
2017-Feb-16 16:33N 30°29' W 012°34'1515.0
2017-Feb-16 15:33N 30°39' W 012°21'1514.7
2017-Feb-16 14:33N 30°49' W 012°08'1514.6
2017-Feb-16 13:33N 30°59' W 011°55'1514.6
2017-Feb-16 12:33N 31°09' W 011°43'1515.0
2017-Feb-16 11:33N 31°19' W 011°30'1514.7
2017-Feb-16 10:33N 31°29' W 011°17'1514.8
2017-Feb-16 09:33N 31°39' W 011°04'1514.7
2017-Feb-16 08:33N 31°49' W 010°51'1514.8
2017-Feb-16 07:33N 31°59' W 010°38'34210.0
2017-Feb-14 21:16N 35°58' W 005°43'1216.6
2017-Feb-14 20:33N 35°59' W 005°29'1716.6
2017-Feb-14 19:33N 36°03' W 005°09'2416.6
2017-Feb-14 18:07N 36°06' W 004°40'  
Track history (hours):
 
Tides and Currents Weather Stations Pressure Air Temp Water Temp Dewpoint Dewpoint Depression Visibility Wind Speed Wind Dir Waves Ship Positions

Norwegian Spirit

Operator: Norwegian Cruise Line

Last reported at 2017-Feb-24 07:33 UTC. Time now 2017-Feb-24 08:21 UTC.
Position N 37°10' W 000°56'.

Type: Passenger vessel. MMSI: 311746000.

Date/timePositionNaut miles runAvg speedWind from/ knotsBaromVisibWave heightAir tempDewpointWater temp
2017-Feb-24 07:33N 37°10' W 000°56'1918.8
2017-Feb-24 06:32N 37°22' W 000°37'2121.4
2017-Feb-24 05:33N 37°37' W 000°18'12821.3
2017-Feb-23 23:33N 39°29' E 001°01'2120.8
2017-Feb-23 22:33N 39°48' E 001°13'2121.1
2017-Feb-23 21:33N 40°06' E 001°25'2221.7
2017-Feb-23 20:33N 40°25' E 001°38'2121.4
2017-Feb-23 19:33N 40°44' E 001°52'2121.3
2017-Feb-23 18:34N 41°03' E 002°05'1817.1
2017-Feb-23 17:30N 41°21' E 002°10'1 1.4
2017-Feb-23 16:32N 41°22' E 002°11'0 0.0
2017-Feb-23 13:14N 41°22' E 002°11'0 0.0
2017-Feb-23 12:26N 41°22' E 002°11'0 0.0
2017-Feb-23 10:32N 41°22' E 002°11'0 0.0
2017-Feb-23 09:32N 41°22' E 002°11'0 0.0
2017-Feb-23 08:32N 41°22' E 002°11'0 0.0
2017-Feb-23 07:32N 41°22' E 002°11'0 0.0
2017-Feb-23 06:29N 41°22' E 002°11'0 0.0
2017-Feb-23 05:29N 41°22' E 002°11'0 0.0
2017-Feb-23 04:32N 41°22' E 002°11'0 0.1
2017-Feb-23 03:33N 41°22' E 002°11'9 9.0
2017-Feb-23 02:34N 41°13' E 002°11'1716.5
2017-Feb-23 01:33N 40°58' E 002°02'1717.1
2017-Feb-23 00:33N 40°42' E 001°52'1717.1
2017-Feb-22 23:33N 40°27' E 001°41'1717.2
2017-Feb-22 22:33N 40°12' E 001°31'1717.3
2017-Feb-22 21:33N 39°56' E 001°21'1817.9
2017-Feb-22 20:33N 39°41' E 001°10'1817.5
2017-Feb-22 19:30N 39°24' E 000°59'1818.8
2017-Feb-22 18:33N 39°08' E 000°49'2121.2
2017-Feb-22 17:32N 38°49' E 000°36'2020.3
2017-Feb-22 16:32N 38°32' E 000°23'44 3.9
2017-Feb-22 05:19N 38°06' W 000°22'1620.6
2017-Feb-22 04:33N 37°50' W 000°26'1919.2
2017-Feb-22 03:33N 37°32' W 000°33'1919.7
2017-Feb-22 02:33N 37°19' W 000°51'211 8.7
2017-Feb-21 02:16N 36°15' W 005°02'1116.1
2017-Feb-21 01:33N 36°06' W 005°10'1717.1
2017-Feb-21 00:33N 35°58' W 005°28'2018.8
2017-Feb-20 23:29N 35°55' W 005°53'  
2017-Feb-18 10:19N 28°28' W 016°14'0 0.0
2017-Feb-18 09:25N 28°28' W 016°14'0 0.0
2017-Feb-18 08:22N 28°28' W 016°14'0 0.3
2017-Feb-18 07:33N 28°29' W 016°14'7 5.8
2017-Feb-18 06:16N 28°26' W 016°07'6 7.8
2017-Feb-18 05:33N 28°25' W 016°00'8 7.5
2017-Feb-18 04:33N 28°29' W 015°54'7 7.4
2017-Feb-18 03:33N 28°35' W 015°48'8 7.5
2017-Feb-18 02:33N 28°40' W 015°42'7 7.4
2017-Feb-18 01:33N 28°44' W 015°35'7 6.8
2017-Feb-18 00:33N 28°44' W 015°27'7 7.4
2017-Feb-17 23:33N 28°42' W 015°19'8 7.5
2017-Feb-17 22:34N 28°34' W 015°19'7 7.4
2017-Feb-17 21:33N 28°27' W 015°18'7 7.4
2017-Feb-17 20:33N 28°19' W 015°18'7 7.0
2017-Feb-17 19:34N 28°12' W 015°18'6 6.5
2017-Feb-17 18:34N 28°07' W 015°23'3 2.4
2017-Feb-17 17:24N 28°08' W 015°25'0 0.0
2017-Feb-17 16:33N 28°08' W 015°25'0 0.0
2017-Feb-17 15:24N 28°08' W 015°25'0 0.0
2017-Feb-17 14:27N 28°08' W 015°25'0 0.0
2017-Feb-17 13:27N 28°08' W 015°25'0 0.0
2017-Feb-17 12:27N 28°08' W 015°25'0 0.0
2017-Feb-17 11:30N 28°08' W 015°25'0 0.0
2017-Feb-17 10:30N 28°08' W 015°25'0 0.0
2017-Feb-17 09:30N 28°08' W 015°25'0 0.0
2017-Feb-17 08:33N 28°08' W 015°25'0 0.4
2017-Feb-17 07:33N 28°08' W 015°25'7 7.1
2017-Feb-17 06:33N 28°06' W 015°18'1414.1
2017-Feb-17 05:33N 28°08' W 015°02'1413.9
2017-Feb-17 04:33N 28°20' W 014°54'1514.6
2017-Feb-17 03:33N 28°32' W 014°44'1514.8
2017-Feb-17 02:33N 28°43' W 014°33'1514.8
2017-Feb-17 01:33N 28°54' W 014°22'1515.0
2017-Feb-17 00:33N 29°06' W 014°11'1514.7
2017-Feb-16 23:33N 29°17' W 014°00'1514.8
2017-Feb-16 22:33N 29°28' W 013°49'1514.6
2017-Feb-16 21:33N 29°39' W 013°38'1514.8
2017-Feb-16 20:33N 29°49' W 013°25'1515.0
2017-Feb-16 19:33N 29°59' W 013°12'1515.0
2017-Feb-16 18:33N 30°09' W 012°59'1515.1
2017-Feb-16 17:33N 30°19' W 012°47'1515.1
2017-Feb-16 16:33N 30°29' W 012°34'1515.0
2017-Feb-16 15:33N 30°39' W 012°21'1514.7
2017-Feb-16 14:33N 30°49' W 012°08'1514.6
2017-Feb-16 13:33N 30°59' W 011°55'1514.6
2017-Feb-16 12:33N 31°09' W 011°43'1515.0
2017-Feb-16 11:33N 31°19' W 011°30'1514.7
2017-Feb-16 10:33N 31°29' W 011°17'1514.8
2017-Feb-16 09:33N 31°39' W 011°04'1514.7
2017-Feb-16 08:33N 31°49' W 010°51'1514.8
2017-Feb-16 07:33N 31°59' W 010°38'34210.0
2017-Feb-14 21:16N 35°58' W 005°43'1216.6
2017-Feb-14 20:33N 35°59' W 005°29'1716.6
2017-Feb-14 19:33N 36°03' W 005°09'2416.6
2017-Feb-14 18:07N 36°06' W 004°40'  

Dump ship's entire track history